Langston, Alabama
Current Conditions -  °F | °C
As of 7:15 PM on Sunday 23 Nov 2014 (Local Time) from K4A6 Reporting Station
Haze Haze  
Wind Chill: 59°   Ceiling: 3200
Heat Index: 59°   Visibility: 5mi
Dew Point: 57°   Wind: 10mph
Humidity: 94%   Direction: 220°SW
Pressure: 29.58"   Gusts: 20mph
Location:  34.54°N, 86.07°W
Report Text: K4A6 240115Z AUTO 22009G17KT 5SM BR FEW023 BKN032 BKN041 15/14 A2958 RMK AO2
Loading
Personal Weather Stations






























Interactive Weather Map New forecast layout! Learn more

10-Day Weather Forecast

Advertisements
Track Severe Weather on mobile